sensor_id;sensor_type;location;lat;lon;timestamp;pressure;altitude;pressure_sealevel;temperature;humidity
62976;BME280;49071;0.000;0.000;2023-06-14T05:17:41;101150.66;;;22.74;38.26
62976;BME280;49071;0.000;0.000;2023-06-14T05:20:42;101144.47;;;22.73;38.53
62976;BME280;49071;0.000;0.000;2023-06-14T05:23:43;101141.91;;;22.72;38.59
62976;BME280;49071;0.000;0.000;2023-06-14T05:26:44;101145.44;;;22.72;38.70
62976;BME280;49071;0.000;0.000;2023-06-14T05:29:45;101144.38;;;22.75;38.52
62976;BME280;49071;0.000;0.000;2023-06-14T05:32:45;101143.41;;;22.76;38.44
62976;BME280;49071;0.000;0.000;2023-06-14T05:35:45;101142.50;;;22.77;38.38
62976;BME280;49071;0.000;0.000;2023-06-14T05:38:45;101144.94;;;22.80;38.44
62976;BME280;49071;0.000;0.000;2023-06-14T05:41:45;101147.63;;;22.80;38.64
62976;BME280;49071;0.000;0.000;2023-06-14T05:44:46;101142.06;;;22.83;38.46
62976;BME280;49071;0.000;0.000;2023-06-14T05:47:46;101143.81;;;22.84;38.69
62976;BME280;49071;0.000;0.000;2023-06-14T05:50:46;101156.31;;;22.84;38.54
62976;BME280;49071;0.000;0.000;2023-06-14T05:53:47;101156.31;;;22.84;38.65
62976;BME280;49071;0.000;0.000;2023-06-14T05:56:47;101159.84;;;22.84;38.66
62976;BME280;49071;0.000;0.000;2023-06-14T05:59:47;101162.50;;;22.84;38.79
62976;BME280;49071;0.000;0.000;2023-06-14T06:02:48;101161.66;;;22.84;39.06
62976;BME280;49071;0.000;0.000;2023-06-14T06:05:48;101164.31;;;22.84;39.21
62976;BME280;49071;0.000;0.000;2023-06-14T06:08:48;101166.09;;;22.83;39.57
62976;BME280;49071;0.000;0.000;2023-06-14T06:11:48;101174.09;;;22.83;39.20
62976;BME280;49071;0.000;0.000;2023-06-14T06:14:48;101175.25;;;22.79;39.29
62976;BME280;49071;0.000;0.000;2023-06-14T06:17:49;101175.44;;;22.76;39.21
62976;BME280;49071;0.000;0.000;2023-06-14T06:20:49;101177.19;;;22.77;39.33
62976;BME280;49071;0.000;0.000;2023-06-14T06:23:49;101175.44;;;22.76;39.19
62976;BME280;49071;0.000;0.000;2023-06-14T06:26:50;101180.75;;;22.76;39.31
62976;BME280;49071;0.000;0.000;2023-06-14T06:29:50;101181.72;;;22.75;39.61
62976;BME280;49071;0.000;0.000;2023-06-14T06:32:51;101194.31;;;22.73;39.64
62976;BME280;49071;0.000;0.000;2023-06-14T06:35:51;101196.13;;;22.72;39.62
62976;BME280;49071;0.000;0.000;2023-06-14T06:38:52;101195.28;;;22.72;39.54
62976;BME280;49071;0.000;0.000;2023-06-14T06:41:52;101201.47;;;22.72;39.75
62976;BME280;49071;0.000;0.000;2023-06-14T06:44:52;101191.84;;;22.70;39.81
62976;BME280;49071;0.000;0.000;2023-06-14T06:47:52;101204.22;;;22.71;39.80
62976;BME280;49071;0.000;0.000;2023-06-14T06:50:52;101199.00;;;22.69;39.60
62976;BME280;49071;0.000;0.000;2023-06-14T06:53:53;101199.84;;;22.70;39.95
62976;BME280;49071;0.000;0.000;2023-06-14T06:56:54;101196.41;;;22.68;39.93
62976;BME280;49071;0.000;0.000;2023-06-14T06:59:54;101199.91;;;22.68;39.86
62976;BME280;49071;0.000;0.000;2023-06-14T07:02:54;101197.19;;;22.70;39.60
62976;BME280;49071;0.000;0.000;2023-06-14T07:05:55;101202.41;;;22.71;39.89
62976;BME280;49071;0.000;0.000;2023-06-14T07:08:55;101207.06;;;22.68;40.24
62976;BME280;49071;0.000;0.000;2023-06-14T07:11:55;101198.09;;;22.69;40.31
62976;BME280;49071;0.000;0.000;2023-06-14T07:14:55;101204.41;;;22.68;40.45
62976;BME280;49071;0.000;0.000;2023-06-14T07:17:55;101199.91;;;22.68;40.07
62976;BME280;49071;0.000;0.000;2023-06-14T07:20:59;101201.72;;;22.68;40.07
62976;BME280;49071;0.000;0.000;2023-06-14T07:24:00;101203.91;;;22.61;40.49
62976;BME280;49071;0.000;0.000;2023-06-14T07:27:00;101207.16;;;22.66;40.55
62976;BME280;49071;0.000;0.000;2023-06-14T07:30:01;101208.78;;;22.69;40.38
62976;BME280;49071;0.000;0.000;2023-06-14T07:33:01;101210.03;;;22.63;40.73
62976;BME280;49071;0.000;0.000;2023-06-14T07:36:02;101219.25;;;22.58;40.96
62976;BME280;49071;0.000;0.000;2023-06-14T07:39:02;101213.72;;;22.61;40.79
62976;BME280;49071;0.000;0.000;2023-06-14T07:42:03;101212.22;;;22.57;40.88
62976;BME280;49071;0.000;0.000;2023-06-14T07:45:04;101214.31;;;22.66;40.47
62976;BME280;49071;0.000;0.000;2023-06-14T07:48:04;101216.03;;;22.67;40.81
62976;BME280;49071;0.000;0.000;2023-06-14T07:51:04;101213.56;;;22.64;41.07
62976;BME280;49071;0.000;0.000;2023-06-14T07:54:05;101223.06;;;22.68;40.60
62976;BME280;49071;0.000;0.000;2023-06-14T07:57:07;101218.59;;;22.68;40.73
62976;BME280;49071;0.000;0.000;2023-06-14T08:00:07;101220.34;;;22.69;40.58
62976;BME280;49071;0.000;0.000;2023-06-14T08:03:07;101212.22;;;22.71;40.64
62976;BME280;49071;0.000;0.000;2023-06-14T08:06:08;101220.88;;;22.74;40.42
62976;BME280;49071;0.000;0.000;2023-06-14T08:09:08;101213.75;;;22.75;40.27
62976;BME280;49071;0.000;0.000;2023-06-14T08:12:08;101220.78;;;22.76;40.98
62976;BME280;49071;0.000;0.000;2023-06-14T08:15:10;101220.88;;;22.74;40.93
62976;BME280;49071;0.000;0.000;2023-06-14T08:18:10;101224.50;;;22.73;41.10
62976;BME280;49071;0.000;0.000;2023-06-14T08:21:10;101220.22;;;22.71;41.33
62976;BME280;49071;0.000;0.000;2023-06-14T08:24:11;101226.22;;;22.74;40.93
62976;BME280;49071;0.000;0.000;2023-06-14T08:27:12;101226.22;;;22.74;41.67
62976;BME280;49071;0.000;0.000;2023-06-14T08:30:13;101223.75;;;22.71;41.79
62976;BME280;49071;0.000;0.000;2023-06-14T08:33:13;101221.00;;;22.73;41.05
62976;BME280;49071;0.000;0.000;2023-06-14T08:36:14;101218.31;;;22.73;41.61
62976;BME280;49071;0.000;0.000;2023-06-14T08:39:14;101224.63;;;22.72;41.68
62976;BME280;49071;0.000;0.000;2023-06-14T08:42:14;101221.34;;;22.67;41.88
62976;BME280;49071;0.000;0.000;2023-06-14T08:45:15;101224.03;;;22.67;41.75
62976;BME280;49071;0.000;0.000;2023-06-14T08:48:15;101219.38;;;22.70;41.50
62976;BME280;49071;0.000;0.000;2023-06-14T08:51:20;101223.75;;;22.71;41.70
62976;BME280;49071;0.000;0.000;2023-06-14T08:54:22;101228.91;;;22.74;41.64
62976;BME280;49071;0.000;0.000;2023-06-14T08:57:24;101233.47;;;22.72;41.50
62976;BME280;49071;0.000;0.000;2023-06-14T09:00:26;101229.94;;;22.72;41.37
62976;BME280;49071;0.000;0.000;2023-06-14T09:03:26;101225.56;;;22.71;41.41
62976;BME280;49071;0.000;0.000;2023-06-14T09:06:29;101242.69;;;22.67;41.92
62976;BME280;49071;0.000;0.000;2023-06-14T09:09:30;101242.09;;;22.62;41.97
62976;BME280;49071;0.000;0.000;2023-06-14T09:12:30;101238.59;;;22.61;41.81
62976;BME280;49071;0.000;0.000;2023-06-14T09:15:31;101242.91;;;22.64;41.58
62976;BME280;49071;0.000;0.000;2023-06-14T09:18:38;101252.63;;;22.65;41.44
62976;BME280;49071;0.000;0.000;2023-06-14T09:21:40;101247.28;;;22.65;41.44
62976;BME280;49071;0.000;0.000;2023-06-14T09:24:41;101255.75;;;22.57;41.61
62976;BME280;49071;0.000;0.000;2023-06-14T09:27:41;101248.59;;;22.58;41.69
62976;BME280;49071;0.000;0.000;2023-06-14T09:30:42;101251.44;;;22.55;41.53
62976;BME280;49071;0.000;0.000;2023-06-14T09:33:43;101248.69;;;22.56;41.56
62976;BME280;49071;0.000;0.000;2023-06-14T09:36:47;101243.38;;;22.56;41.55
62976;BME280;49071;0.000;0.000;2023-06-14T09:39:49;101243.38;;;22.56;41.52
62976;BME280;49071;0.000;0.000;2023-06-14T09:42:50;101245.94;;;22.58;41.49
62976;BME280;49071;0.000;0.000;2023-06-14T09:45:51;101235.25;;;22.58;41.41
62976;BME280;49071;0.000;0.000;2023-06-14T09:48:51;101232.59;;;22.58;41.30
62976;BME280;49071;0.000;0.000;2023-06-14T09:51:52;101233.91;;;22.51;41.92
62976;BME280;49071;0.000;0.000;2023-06-14T09:54:53;101233.91;;;22.51;41.76
62976;BME280;49071;0.000;0.000;2023-06-14T09:57:54;101223.84;;;22.56;41.43
62976;BME280;49071;0.000;0.000;2023-06-14T10:00:56;101219.44;;;22.55;41.68
62976;BME280;49071;0.000;0.000;2023-06-14T10:04:04;101225.56;;;22.57;41.64
62976;BME280;49071;0.000;0.000;2023-06-14T10:07:05;101225.63;;;22.55;41.48
62976;BME280;49071;0.000;0.000;2023-06-14T10:10:05;101231.03;;;22.54;41.55
62976;BME280;49071;0.000;0.000;2023-06-14T10:13:06;101226.47;;;22.41;42.15
62976;BME280;49071;0.000;0.000;2023-06-14T10:16:10;101226.00;;;22.49;42.03
62976;BME280;49071;0.000;0.000;2023-06-14T10:19:25;101223.91;;;22.54;41.98
62976;BME280;49071;0.000;0.000;2023-06-14T10:22:35;101217.91;;;22.51;41.59
62976;BME280;49071;0.000;0.000;2023-06-14T10:25:39;101211.34;;;22.56;41.64
62976;BME280;49071;0.000;0.000;2023-06-14T10:28:39;101205.72;;;22.61;41.23
62976;BME280;49071;0.000;0.000;2023-06-14T10:31:40;101206.50;;;22.63;41.48
62976;BME280;49071;0.000;0.000;2023-06-14T10:34:41;101205.56;;;22.64;41.49
62976;BME280;49071;0.000;0.000;2023-06-14T10:37:41;101207.16;;;22.66;42.70
62976;BME280;49071;0.000;0.000;2023-06-14T10:40:42;101201.72;;;22.68;41.81
62976;BME280;49071;0.000;0.000;2023-06-14T10:43:43;101203.44;;;22.69;42.33
62976;BME280;49071;0.000;0.000;2023-06-14T10:46:47;101194.50;;;22.70;41.26
62976;BME280;49071;0.000;0.000;2023-06-14T10:49:49;101189.94;;;22.72;41.80
62976;BME280;49071;0.000;0.000;2023-06-14T10:52:51;101196.97;;;22.73;41.58
62976;BME280;49071;0.000;0.000;2023-06-14T10:55:51;101194.22;;;22.74;41.42
62976;BME280;49071;0.000;0.000;2023-06-14T10:58:51;101183.53;;;22.74;41.61
62976;BME280;49071;0.000;0.000;2023-06-14T11:05:10;101176.31;;;22.77;41.29
62976;BME280;49071;0.000;0.000;2023-06-14T11:08:27;101172.69;;;22.78;41.73
62976;BME280;49071;0.000;0.000;2023-06-14T11:14:34;101166.28;;;22.80;41.34
62976;BME280;49071;0.000;0.000;2023-06-14T11:17:34;101169.81;;;22.81;41.09
62976;BME280;49071;0.000;0.000;2023-06-14T11:20:35;101165.34;;;22.81;40.68
62976;BME280;49071;0.000;0.000;2023-06-14T11:23:35;101164.38;;;22.82;40.98
62976;BME280;49071;0.000;0.000;2023-06-14T11:26:37;101160.84;;;22.82;41.17
62976;BME280;49071;0.000;0.000;2023-06-14T11:29:37;101161.66;;;22.84;40.59
62976;BME280;49071;0.000;0.000;2023-06-14T11:32:37;101163.44;;;22.83;40.92
62976;BME280;49071;0.000;0.000;2023-06-14T11:35:37;101156.31;;;22.84;40.96
62976;BME280;49071;0.000;0.000;2023-06-14T11:38:38;101151.75;;;22.86;40.53
62976;BME280;49071;0.000;0.000;2023-06-14T11:41:42;101148.19;;;22.85;41.13
62976;BME280;49071;0.000;0.000;2023-06-14T11:44:45;101147.34;;;22.85;40.84
62976;BME280;49071;0.000;0.000;2023-06-14T11:47:46;101150.88;;;22.85;41.28
62976;BME280;49071;0.000;0.000;2023-06-14T11:50:49;101149.94;;;22.86;40.38
62976;BME280;49071;0.000;0.000;2023-06-14T11:53:49;101145.47;;;22.87;40.85
62976;BME280;49071;0.000;0.000;2023-06-14T11:56:49;101147.16;;;22.88;40.98
62976;BME280;49071;0.000;0.000;2023-06-14T11:59:51;101148.03;;;22.88;40.69
62976;BME280;49071;0.000;0.000;2023-06-14T12:02:54;101144.59;;;22.86;40.56
62976;BME280;49071;0.000;0.000;2023-06-14T12:06:07;101134.78;;;22.87;40.37
62976;BME280;49071;0.000;0.000;2023-06-14T12:09:08;101118.78;;;22.87;40.47
62976;BME280;49071;0.000;0.000;2023-06-14T12:12:13;101124.97;;;22.87;40.55
62976;BME280;49071;0.000;0.000;2023-06-14T12:15:13;101119.63;;;22.87;40.44
62976;BME280;49071;0.000;0.000;2023-06-14T12:18:13;101124.88;;;22.89;40.45
62976;BME280;49071;0.000;0.000;2023-06-14T12:21:13;101122.97;;;22.91;40.04
62976;BME280;49071;0.000;0.000;2023-06-14T12:24:14;101120.38;;;22.89;39.89
62976;BME280;49071;0.000;0.000;2023-06-14T12:27:14;101129.44;;;22.87;39.54
62976;BME280;49071;0.000;0.000;2023-06-14T12:30:15;101121.34;;;22.88;39.78
62976;BME280;49071;0.000;0.000;2023-06-14T12:33:16;101121.31;;;22.74;39.28
62976;BME280;49071;0.000;0.000;2023-06-14T12:36:16;101131.41;;;22.69;39.10
62976;BME280;49071;0.000;0.000;2023-06-14T12:39:19;101125.91;;;22.72;39.19
62976;BME280;49071;0.000;0.000;2023-06-14T12:42:20;101127.50;;;22.74;39.29
62976;BME280;49071;0.000;0.000;2023-06-14T12:45:21;101120.56;;;22.72;39.82
62976;BME280;49071;0.000;0.000;2023-06-14T12:48:22;101120.38;;;22.75;40.24
62976;BME280;49071;0.000;0.000;2023-06-14T12:51:22;101131.88;;;22.75;39.53
62976;BME280;49071;0.000;0.000;2023-06-14T12:54:23;101119.41;;;22.76;40.25
62976;BME280;49071;0.000;0.000;2023-06-14T12:57:25;101109.50;;;22.78;40.10
62976;BME280;49071;0.000;0.000;2023-06-14T13:00:25;101103.31;;;22.78;39.59
62976;BME280;49071;0.000;0.000;2023-06-14T13:06:26;101099.00;;;22.75;39.65
62976;BME280;49071;0.000;0.000;2023-06-14T13:09:26;101102.47;;;22.77;39.92
62976;BME280;49071;0.000;0.000;2023-06-14T13:12:26;101091.59;;;22.80;39.64
62976;BME280;49071;0.000;0.000;2023-06-14T13:18:27;101087.97;;;22.81;40.25
62976;BME280;49071;0.000;0.000;2023-06-14T13:21:27;101084.34;;;22.82;39.86
62976;BME280;49071;0.000;0.000;2023-06-14T13:24:27;101092.34;;;22.82;39.78
62976;BME280;49071;0.000;0.000;2023-06-14T13:27:29;101083.38;;;22.83;40.18
62976;BME280;49071;0.000;0.000;2023-06-14T13:30:29;101071.78;;;22.84;40.26
62976;BME280;49071;0.000;0.000;2023-06-14T13:33:30;101077.97;;;22.85;40.11
62976;BME280;49071;0.000;0.000;2023-06-14T13:36:31;101078.81;;;22.85;40.46
62976;BME280;49071;0.000;0.000;2023-06-14T13:39:31;101073.47;;;22.85;41.06
62976;BME280;49071;0.000;0.000;2023-06-14T13:42:31;101075.22;;;22.86;40.57
62976;BME280;49071;0.000;0.000;2023-06-14T13:45:32;101064.56;;;22.86;40.91
62976;BME280;49071;0.000;0.000;2023-06-14T13:48:32;101065.41;;;22.87;40.38
62976;BME280;49071;0.000;0.000;2023-06-14T13:51:32;101073.41;;;22.87;40.04
62976;BME280;49071;0.000;0.000;2023-06-14T13:54:33;101071.59;;;22.87;40.36
62976;BME280;49071;0.000;0.000;2023-06-14T13:57:33;101066.25;;;22.87;40.65
62976;BME280;49071;0.000;0.000;2023-06-14T14:00:33;101067.97;;;22.88;40.75
62976;BME280;49071;0.000;0.000;2023-06-14T14:03:34;101063.50;;;22.89;40.43
62976;BME280;49071;0.000;0.000;2023-06-14T14:06:34;101064.16;;;22.92;40.98
62976;BME280;49071;0.000;0.000;2023-06-14T14:09:35;101057.97;;;22.92;40.61
62976;BME280;49071;0.000;0.000;2023-06-14T14:12:35;101053.59;;;22.91;40.62
62976;BME280;49071;0.000;0.000;2023-06-14T14:15:35;101055.38;;;22.90;40.51
62976;BME280;49071;0.000;0.000;2023-06-14T14:18:36;101045.59;;;22.91;40.19
62976;BME280;49071;0.000;0.000;2023-06-14T14:21:37;101045.28;;;22.95;40.23
62976;BME280;49071;0.000;0.000;2023-06-14T14:24:37;101052.31;;;22.96;40.57
62976;BME280;49071;0.000;0.000;2023-06-14T14:27:37;101041.75;;;22.95;40.81
62976;BME280;49071;0.000;0.000;2023-06-14T14:30:38;101040.03;;;22.94;40.94
62976;BME280;49071;0.000;0.000;2023-06-14T14:33:39;101041.75;;;22.95;40.84
62976;BME280;49071;0.000;0.000;2023-06-14T14:36:39;101038.22;;;22.94;40.22
62976;BME280;49071;0.000;0.000;2023-06-14T14:39:43;101043.34;;;22.97;40.38
62976;BME280;49071;0.000;0.000;2023-06-14T14:42:44;101035.44;;;22.96;40.67
62976;BME280;49071;0.000;0.000;2023-06-14T14:45:44;101035.34;;;22.97;40.37
62976;BME280;49071;0.000;0.000;2023-06-14T14:48:44;101034.50;;;22.97;41.07
62976;BME280;49071;0.000;0.000;2023-06-14T14:51:44;101041.66;;;22.96;41.10
62976;BME280;49071;0.000;0.000;2023-06-14T14:54:45;101039.81;;;22.97;40.59
62976;BME280;49071;0.000;0.000;2023-06-14T14:57:45;101036.31;;;22.96;41.13
62976;BME280;49071;0.000;0.000;2023-06-14T15:00:46;101030.78;;;22.99;40.33
62976;BME280;49071;0.000;0.000;2023-06-14T15:03:46;101034.41;;;22.98;40.32
62976;BME280;49071;0.000;0.000;2023-06-14T15:06:46;101037.94;;;22.99;40.53
62976;BME280;49071;0.000;0.000;2023-06-14T15:09:46;101047.75;;;22.98;40.96
62976;BME280;49071;0.000;0.000;2023-06-14T15:12:50;101045.09;;;22.98;40.31
62976;BME280;49071;0.000;0.000;2023-06-14T15:15:50;101048.63;;;22.99;40.49
62976;BME280;49071;0.000;0.000;2023-06-14T15:18:51;101063.66;;;23.00;40.33
62976;BME280;49071;0.000;0.000;2023-06-14T15:21:51;101064.41;;;23.02;40.93
62976;BME280;49071;0.000;0.000;2023-06-14T15:24:51;101071.56;;;23.01;40.82
62976;BME280;49071;0.000;0.000;2023-06-14T15:27:51;101067.19;;;23.00;41.16
62976;BME280;49071;0.000;0.000;2023-06-14T15:30:52;101064.53;;;23.00;41.31
62976;BME280;49071;0.000;0.000;2023-06-14T15:33:52;101057.38;;;23.01;41.01
62976;BME280;49071;0.000;0.000;2023-06-14T15:36:52;101054.59;;;23.02;41.61
62976;BME280;49071;0.000;0.000;2023-06-14T15:39:52;101053.56;;;23.05;41.15
62976;BME280;49071;0.000;0.000;2023-06-14T15:42:52;101051.63;;;23.07;41.29
62976;BME280;49071;0.000;0.000;2023-06-14T15:45:52;101048.84;;;23.09;41.46
62976;BME280;49071;0.000;0.000;2023-06-14T15:48:53;101039.88;;;23.10;41.78
62976;BME280;49071;0.000;0.000;2023-06-14T15:51:53;101039.88;;;23.10;41.80
62976;BME280;49071;0.000;0.000;2023-06-14T15:54:53;101040.75;;;23.10;41.60
62976;BME280;49071;0.000;0.000;2023-06-14T15:57:54;101037.22;;;23.10;41.56
62976;BME280;49071;0.000;0.000;2023-06-14T16:00:55;101036.25;;;23.11;41.18
62976;BME280;49071;0.000;0.000;2023-06-14T16:03:55;101039.88;;;23.10;41.74
62976;BME280;49071;0.000;0.000;2023-06-14T16:06:56;101040.75;;;23.10;41.22
62976;BME280;49071;0.000;0.000;2023-06-14T16:09:56;101041.59;;;23.11;42.70
62976;BME280;49071;0.000;0.000;2023-06-14T16:12:56;101038.00;;;23.12;42.26
62976;BME280;49071;0.000;0.000;2023-06-14T16:15:56;101031.78;;;23.11;42.10
62976;BME280;49071;0.000;0.000;2023-06-14T16:18:57;101038.84;;;23.12;42.33
62976;BME280;49071;0.000;0.000;2023-06-14T16:21:57;101043.03;;;23.16;41.35
62976;BME280;49071;0.000;0.000;2023-06-14T16:24:57;101034.91;;;23.18;41.90
62976;BME280;49071;0.000;0.000;2023-06-14T16:27:57;101038.53;;;23.17;41.79
62976;BME280;49071;0.000;0.000;2023-06-14T16:30:57;101043.03;;;23.16;41.98
62976;BME280;49071;0.000;0.000;2023-06-14T16:33:58;101041.19;;;23.17;41.98
62976;BME280;49071;0.000;0.000;2023-06-14T16:36:58;101044.84;;;23.16;42.24
62976;BME280;49071;0.000;0.000;2023-06-14T16:39:58;101049.22;;;23.17;42.12
62976;BME280;49071;0.000;0.000;2023-06-14T16:42:58;101048.06;;;23.21;41.42
62976;BME280;49071;0.000;0.000;2023-06-14T16:45:58;101049.47;;;23.26;41.49
62976;BME280;49071;0.000;0.000;2023-06-14T16:48:59;101053.88;;;23.27;41.02
62976;BME280;49071;0.000;0.000;2023-06-14T16:51:59;101049.66;;;23.23;41.85
62976;BME280;49071;0.000;0.000;2023-06-14T16:55:00;101050.22;;;23.28;41.53
62976;BME280;49071;0.000;0.000;2023-06-14T16:58:00;101050.88;;;23.32;41.49
62976;BME280;49071;0.000;0.000;2023-06-14T17:01:00;101060.63;;;23.33;41.28
62976;BME280;49071;0.000;0.000;2023-06-14T17:04:01;101059.66;;;23.34;41.30
62976;BME280;49071;0.000;0.000;2023-06-14T17:07:01;101056.03;;;23.35;41.04
62976;BME280;49071;0.000;0.000;2023-06-14T17:10:04;101056.97;;;23.34;41.51
62976;BME280;49071;0.000;0.000;2023-06-14T17:13:04;101061.38;;;23.35;41.13
62976;BME280;49071;0.000;0.000;2023-06-14T17:16:04;101064.03;;;23.35;41.37
62976;BME280;49071;0.000;0.000;2023-06-14T17:19:06;101066.59;;;23.37;41.01
62976;BME280;49071;0.000;0.000;2023-06-14T17:22:06;101065.75;;;23.36;41.19
62976;BME280;49071;0.000;0.000;2023-06-14T17:25:07;101061.47;;;23.34;41.41
62976;BME280;49071;0.000;0.000;2023-06-14T17:28:07;101066.03;;;23.32;41.60
62976;BME280;49071;0.000;0.000;2023-06-14T17:31:07;101063.47;;;23.30;41.88
62976;BME280;49071;0.000;0.000;2023-06-14T17:34:08;101073.31;;;23.29;42.02
62976;BME280;49071;0.000;0.000;2023-06-14T17:37:08;101068.69;;;23.32;41.17
62976;BME280;49071;0.000;0.000;2023-06-14T17:40:08;101074.72;;;23.35;41.17
62976;BME280;49071;0.000;0.000;2023-06-14T17:43:09;101070.34;;;23.34;41.21
62976;BME280;49071;0.000;0.000;2023-06-14T17:46:09;101070.13;;;23.37;41.28
62976;BME280;49071;0.000;0.000;2023-06-14T17:49:09;101072.78;;;23.37;41.41
62976;BME280;49071;0.000;0.000;2023-06-14T17:52:10;101079.19;;;23.35;41.98
62976;BME280;49071;0.000;0.000;2023-06-14T17:55:10;101077.38;;;23.35;41.42
62976;BME280;49071;0.000;0.000;2023-06-14T17:58:10;101073.75;;;23.36;41.51
62976;BME280;49071;0.000;0.000;2023-06-14T18:01:10;101079.72;;;23.40;41.46
62976;BME280;49071;0.000;0.000;2023-06-14T18:04:10;101074.50;;;23.38;41.45
62976;BME280;49071;0.000;0.000;2023-06-14T18:07:11;101085.28;;;23.37;41.38
62976;BME280;49071;0.000;0.000;2023-06-14T18:10:11;101084.44;;;23.36;42.00
62976;BME280;49071;0.000;0.000;2023-06-14T18:13:14;101079.00;;;23.38;41.57
62976;BME280;49071;0.000;0.000;2023-06-14T18:16:14;101080.50;;;23.42;41.19
62976;BME280;49071;0.000;0.000;2023-06-14T18:19:16;101077.16;;;23.38;41.47
62976;BME280;49071;0.000;0.000;2023-06-14T18:22:17;101079.09;;;23.36;41.51
62976;BME280;49071;0.000;0.000;2023-06-14T18:25:17;101079.66;;;23.41;41.26
62976;BME280;49071;0.000;0.000;2023-06-14T18:28:22;101078.59;;;23.44;41.45
62976;BME280;49071;0.000;0.000;2023-06-14T18:31:22;101074.00;;;23.46;41.48
62976;BME280;49071;0.000;0.000;2023-06-14T18:34:23;101073.06;;;23.47;41.31
62976;BME280;49071;0.000;0.000;2023-06-14T18:37:23;101067.78;;;23.45;41.62
62976;BME280;49071;0.000;0.000;2023-06-14T18:40:24;101073.13;;;23.45;41.52
62976;BME280;49071;0.000;0.000;2023-06-14T18:43:25;101074.00;;;23.46;41.56
62976;BME280;49071;0.000;0.000;2023-06-14T18:46:25;101069.44;;;23.48;41.63
62976;BME280;49071;0.000;0.000;2023-06-14T18:49:26;101068.47;;;23.49;41.44
62976;BME280;49071;0.000;0.000;2023-06-14T18:52:26;101080.84;;;23.50;41.38
62976;BME280;49071;0.000;0.000;2023-06-14T18:55:26;101079.16;;;23.49;41.57
62976;BME280;49071;0.000;0.000;2023-06-14T18:58:26;101080.00;;;23.49;41.31
62976;BME280;49071;0.000;0.000;2023-06-14T19:01:26;101082.56;;;23.51;41.60
62976;BME280;49071;0.000;0.000;2023-06-14T19:04:27;101079.88;;;23.51;41.64
62976;BME280;49071;0.000;0.000;2023-06-14T19:07:27;101081.94;;;23.47;41.60
62976;BME280;49071;0.000;0.000;2023-06-14T19:10:27;101084.59;;;23.47;41.61
62976;BME280;49071;0.000;0.000;2023-06-14T19:13:27;101076.38;;;23.50;41.63
62976;BME280;49071;0.000;0.000;2023-06-14T19:16:28;101086.09;;;23.51;41.46
62976;BME280;49071;0.000;0.000;2023-06-14T19:19:28;101085.34;;;23.49;41.57
62976;BME280;49071;0.000;0.000;2023-06-14T19:22:29;101091.44;;;23.51;41.57
62976;BME280;49071;0.000;0.000;2023-06-14T19:25:29;101085.97;;;23.53;41.50
62976;BME280;49071;0.000;0.000;2023-06-14T19:28:29;101091.25;;;23.54;41.38
62976;BME280;49071;0.000;0.000;2023-06-14T19:31:29;101086.84;;;23.53;41.38
62976;BME280;49071;0.000;0.000;2023-06-14T19:34:30;101096.59;;;23.54;41.49
62976;BME280;49071;0.000;0.000;2023-06-14T19:37:30;101087.72;;;23.54;41.69
62976;BME280;49071;0.000;0.000;2023-06-14T19:40:31;101097.44;;;23.55;41.57
62976;BME280;49071;0.000;0.000;2023-06-14T19:43:31;101102.78;;;23.55;41.41
62976;BME280;49071;0.000;0.000;2023-06-14T19:46:32;101096.66;;;23.53;41.52
62976;BME280;49071;0.000;0.000;2023-06-14T19:49:32;101103.75;;;23.54;41.79
62976;BME280;49071;0.000;0.000;2023-06-14T19:52:35;101095.81;;;23.52;41.63
62976;BME280;49071;0.000;0.000;2023-06-14T19:55:35;101094.22;;;23.50;41.77
62976;BME280;49071;0.000;0.000;2023-06-14T19:58:36;101099.66;;;23.48;42.48
62976;BME280;49071;0.000;0.000;2023-06-14T20:01:36;101105.97;;;23.47;42.11
62976;BME280;49071;0.000;0.000;2023-06-14T20:04:36;101101.47;;;23.48;42.34
62976;BME280;49071;0.000;0.000;2023-06-14T20:07:36;101098.81;;;23.48;41.83
